Time;durP1;ratioP1;P1;durP2;ratioP2;P2;SDS_P1;SDS_P2;PMS_P1;PMS_P2;Temp;Humidity;BMP_temperature;BMP_pressure;BME280_temperature;BME280_humidity;BME280_pressure;Samples;Min_cycle;Max_cycle;Signal;HPM_P1;HPM_P2
2022/07/30 00:01:27;;;;;;;9.05;5.75;;;19.50;73.40;;;15.36;98.16;95768.03;4969761;28;20069;-45
2022/07/30 00:03:59;;;;;;;7.38;4.90;;;19.50;73.30;;;15.37;97.99;95766.91;4953499;28;20559;-43
2022/07/30 00:06:28;;;;;;;9.23;5.80;;;19.50;73.60;;;15.36;98.03;95773.38;4955537;28;20444;-42
2022/07/30 00:09:00;;;;;;;6.70;5.25;;;19.50;73.40;;;15.36;98.41;95769.91;4970115;28;20171;-41
2022/07/30 00:11:29;;;;;;;9.05;5.40;;;19.50;73.60;;;15.40;98.30;95776.28;4953903;28;20385;-41
2022/07/30 00:13:55;;;;;;;7.53;5.68;;;19.50;73.50;;;15.40;98.31;95768.25;4953906;28;20030;-44
2022/07/30 00:16:24;;;;;;;9.57;5.25;;;19.50;73.50;;;15.40;98.40;95766.34;4970057;28;20034;-41
2022/07/30 00:19:05;;;;;;;9.05;5.32;;;19.50;73.60;;;15.40;98.19;95776.28;4969869;28;20105;-43
2022/07/30 00:21:34;;;;;;;7.70;4.85;;;19.50;74.60;;;15.39;98.14;95769.34;4962168;28;20221;-42
2022/07/30 00:24:02;;;;;;;6.68;4.72;;;19.50;73.50;;;15.37;98.04;95766.91;4989164;28;20026;-41
2022/07/30 00:26:28;;;;;;;7.95;5.13;;;19.50;73.50;;;15.38;97.99;95763.13;4974074;28;20384;-41
2022/07/30 00:28:54;;;;;;;7.13;5.07;;;19.50;73.50;;;15.38;97.85;95771.19;4972152;28;20366;-44
2022/07/30 00:31:23;;;;;;;10.00;4.90;;;19.50;73.60;;;15.37;97.73;95764.25;4972915;28;20030;-41
2022/07/30 00:33:49;;;;;;;6.57;4.93;;;19.50;73.50;;;15.36;97.90;95772.59;4988461;28;20022;-42
2022/07/30 00:36:18;;;;;;;8.02;5.25;;;19.50;73.50;;;15.37;97.94;95774.19;4989189;28;20532;-42
2022/07/30 00:38:49;;;;;;;7.22;5.07;;;19.50;73.60;;;15.37;98.12;95771.50;4989067;28;20085;-42
2022/07/30 00:41:15;;;;;;;9.35;5.80;;;19.50;73.60;;;15.37;98.14;95774.19;4972304;28;20512;-46
2022/07/30 00:43:41;;;;;;;6.82;5.07;;;19.50;73.50;;;15.36;98.35;95768.03;4988481;28;20197;-41
2022/07/30 00:46:07;;;;;;;8.80;5.05;;;19.50;73.50;;;15.37;98.23;95766.91;4973949;28;20032;-44
2022/07/30 00:48:36;;;;;;;14.05;5.13;;;19.50;73.50;;;15.35;98.12;95774.47;4989089;28;20109;-42
2022/07/30 00:51:05;;;;;;;9.15;5.50;;;19.50;73.60;;;15.35;98.32;95771.78;4988897;28;20156;-43
2022/07/30 00:53:33;;;;;;;10.60;5.43;;;19.50;73.60;;;15.37;98.41;95772.28;4988875;28;20036;-42
2022/07/30 00:55:59;;;;;;;9.88;5.35;;;19.40;73.50;;;15.37;98.08;95766.13;4987950;28;20022;-50
2022/07/30 00:58:31;;;;;;;7.22;4.97;;;19.40;73.50;;;15.36;97.92;95770.69;4988082;28;20038;-44
2022/07/30 01:00:57;;;;;;;7.55;5.07;;;19.50;73.50;;;15.34;98.19;95774.75;4988240;28;20041;-44
2022/07/30 01:03:26;;;;;;;11.80;5.97;;;19.40;73.50;;;15.35;98.22;95784.41;4988771;28;20109;-43
2022/07/30 01:05:55;;;;;;;12.23;5.38;;;19.50;73.50;;;15.36;98.14;95789.50;4972043;28;20044;-43
2022/07/30 01:08:21;;;;;;;9.27;5.47;;;19.50;73.60;;;15.35;98.25;95779.81;4973422;28;20041;-41
2022/07/30 01:10:52;;;;;;;6.13;5.38;;;19.50;73.60;;;15.33;98.05;95781.22;4988331;28;20045;-42
2022/07/30 01:13:31;;;;;;;9.02;5.50;;;19.40;73.50;;;15.30;97.85;95785.28;4988634;28;20041;-42
2022/07/30 01:16:03;;;;;;;11.00;5.35;;;19.40;73.50;;;15.28;97.77;95782.06;4988083;28;20405;-42
2022/07/30 01:21:42;;;;;;;8.50;5.20;;;19.30;73.30;;;15.17;97.84;95781.44;4973124;28;20112;-42
2022/07/30 01:24:35;;;;;;;11.25;5.35;;;19.30;73.40;;;15.14;97.72;95786.56;4987330;28;20065;-41
2022/07/30 01:27:01;;;;;;;8.60;5.30;;;19.20;73.30;;;15.06;97.29;95777.28;4987692;28;20030;-41
2022/07/30 01:29:35;;;;;;;8.32;5.90;;;19.20;73.00;;;15.01;97.49;95790.72;4987684;28;20121;-46
2022/07/30 01:32:06;;;;;;;8.90;5.90;;;19.10;73.10;;;14.96;97.62;95788.13;4973092;28;20061;-43
2022/07/30 01:34:41;;;;;;;12.63;5.50;;;19.00;73.20;;;14.91;97.34;95791.66;4987530;28;20031;-42
2022/07/30 01:37:12;;;;;;;12.45;5.90;;;19.00;73.20;;;14.85;97.43;95782.06;4971356;28;20045;-44
2022/07/30 01:39:40;;;;;;;12.15;6.60;;;18.90;73.20;;;14.80;98.06;95780.28;4987815;28;20031;-42
2022/07/30 01:42:13;;;;;;;12.68;6.25;;;18.90;73.20;;;14.77;97.94;95785.41;4987461;28;20113;-42
2022/07/30 01:44:58;;;;;;;10.25;6.30;;;18.80;73.30;;;14.74;97.83;95785.97;4987609;28;20046;-41
2022/07/30 01:47:38;;;;;;;10.43;7.05;;;18.80;73.40;;;14.69;97.67;95786.81;4988001;28;20049;-42
2022/07/30 01:50:15;;;;;;;11.93;6.38;;;18.80;73.50;;;14.64;97.99;95783.41;4987927;28;20436;-48
2022/07/30 01:52:50;;;;;;;14.55;6.72;;;18.70;73.40;;;14.59;97.92;95784.25;4986872;28;20036;-43
2022/07/30 01:55:34;;;;;;;10.90;7.65;;;18.70;73.50;;;14.55;98.45;95781.34;4987357;28;20026;-41
2022/07/30 01:58:06;;;;;;;10.50;7.30;;;18.70;73.60;;;14.51;97.94;95777.66;4986936;28;20121;-42
2022/07/30 02:00:41;;;;;;;16.13;7.00;;;18.60;73.60;;;14.49;98.57;95784.34;4987302;28;20113;-44
2022/07/30 02:03:10;;;;;;;14.70;7.90;;;18.60;73.60;;;14.47;98.62;95775.78;4970784;28;20050;-42
2022/07/30 02:05:41;;;;;;;13.70;7.70;;;18.50;73.60;;;14.45;98.88;95788.69;4987306;28;20492;-45
2022/07/30 02:08:40;;;;;;;11.45;7.45;;;18.50;74.40;;;14.41;98.71;95784.94;4987368;28;20038;-41
2022/07/30 02:14:48;;;;;;;10.55;6.78;;;18.40;73.90;;;14.34;99.47;95785.28;4985570;28;20077;-42
2022/07/30 02:17:27;;;;;;;15.45;7.35;;;18.30;73.80;;;14.29;99.67;95775.44;4986455;28;20105;-49
2022/07/30 02:19:56;;;;;;;14.35;7.75;;;18.30;73.80;;;14.25;99.53;95782.41;4986825;28;20027;-41
2022/07/30 02:22:35;;;;;;;12.60;7.00;;;18.30;73.80;;;14.21;99.32;95775.25;4986951;28;20065;-42
2022/07/30 02:25:06;;;;;;;13.73;7.65;;;18.20;73.90;;;14.12;100.00;95775.03;4970663;28;20034;-45
2022/07/30 02:27:40;;;;;;;13.95;7.82;;;18.20;73.90;;;14.09;99.45;95775.59;4986725;28;20057;-41
2022/07/30 02:30:08;;;;;;;16.80;9.80;;;18.10;73.90;;;14.03;99.20;95766.81;4986711;28;20030;-47
2022/07/30 02:32:41;;;;;;;13.32;8.15;;;18.10;73.80;;;13.97;99.62;95764.47;4986856;28;20030;-49
2022/07/30 02:35:17;;;;;;;14.15;7.32;;;18.10;74.00;;;13.89;99.73;95760.53;4971841;28;20026;-42
2022/07/30 02:37:49;;;;;;;14.57;7.65;;;18.00;73.90;;;13.83;99.45;95762.44;4972092;28;20034;-46
2022/07/30 02:40:19;;;;;;;15.50;8.75;;;18.00;73.90;;;13.79;100.00;95769.44;4986109;28;20121;-42
2022/07/30 02:42:51;;;;;;;15.15;8.02;;;17.90;73.90;;;13.80;100.00;95765.69;4972266;28;20073;-42
2022/07/30 02:45:25;;;;;;;17.98;8.30;;;17.90;74.50;;;13.78;100.00;95762.47;4986199;28;20030;-45
2022/07/30 02:48:07;;;;;;;15.23;9.02;;;17.80;73.90;;;13.78;100.00;95765.16;4986902;28;20030;-42
2022/07/30 02:50:36;;;;;;;13.90;7.95;;;17.80;74.10;;;13.74;100.00;95771.34;4986342;28;20050;-42
2022/07/30 02:53:13;;;;;;;11.82;7.70;;;17.80;74.00;;;13.72;100.00;95768.16;4986766;28;20120;-43
2022/07/30 02:55:42;;;;;;;13.32;7.70;;;17.70;74.20;;;13.72;100.00;95778.84;4986207;28;20022;-43
2022/07/30 02:58:14;;;;;;;12.27;7.28;;;17.70;74.10;;;13.67;99.85;95779.72;4986461;28;20026;-42
2022/07/30 03:00:47;;;;;;;14.15;8.00;;;17.70;74.00;;;13.58;100.00;95776.81;4970468;28;20026;-42
2022/07/30 03:03:19;;;;;;;18.63;8.70;;;17.70;74.10;;;13.56;100.00;95781.63;4971269;28;20042;-42
2022/07/30 03:05:50;;;;;;;13.63;7.75;;;17.60;74.10;;;13.53;100.00;95776.03;4970190;28;20038;-41
2022/07/30 03:08:16;;;;;;;13.98;7.80;;;17.60;74.10;;;13.48;100.00;95782.25;4970594;28;20400;-42
2022/07/30 03:10:44;;;;;;;13.95;8.13;;;17.50;74.00;;;13.48;100.00;95784.94;4970493;28;20512;-40
2022/07/30 03:13:13;;;;;;;13.02;7.55;;;17.50;74.20;;;13.46;100.00;95779.03;4970996;28;20113;-41
2022/07/30 03:15:48;;;;;;;17.33;8.05;;;17.50;74.20;;;13.42;100.00;95789.50;4969631;28;20113;-44
2022/07/30 03:18:19;;;;;;;14.95;7.85;;;17.50;74.30;;;13.39;100.00;95787.38;4970387;28;20036;-43
2022/07/30 03:20:55;;;;;;;13.18;7.20;;;17.50;74.40;;;13.38;100.00;95788.47;4969872;28;20030;-40
2022/07/30 03:23:24;;;;;;;15.40;6.90;;;17.40;74.40;;;13.35;100.00;95796.22;4970069;28;20560;-48
2022/07/30 03:26:04;;;;;;;11.43;6.93;;;17.40;74.30;;;13.33;100.00;95795.72;4953606;28;20378;-50
2022/07/30 03:28:36;;;;;;;12.00;7.22;;;17.40;74.40;;;13.33;100.00;95798.38;4970422;28;20149;-41
2022/07/30 03:31:09;;;;;;;11.00;6.13;;;17.40;74.40;;;13.32;100.00;95799.47;4953386;28;20073;-44
2022/07/30 03:33:38;;;;;;;12.98;6.18;;;17.40;74.40;;;13.31;100.00;95795.97;4969876;28;20022;-47
2022/07/30 03:36:06;;;;;;;10.02;6.22;;;17.40;74.40;;;13.26;100.00;95797.91;4970301;28;20021;-44
2022/07/30 03:38:42;;;;;;;12.65;6.65;;;17.30;74.30;;;13.22;100.00;95802.16;4971034;28;20480;-43
2022/07/30 03:41:11;;;;;;;13.13;7.15;;;17.30;74.40;;;13.19;100.00;95798.16;4969772;28;20081;-43
2022/07/30 03:43:39;;;;;;;13.20;7.47;;;17.30;74.30;;;13.14;100.00;95804.34;4953191;28;20125;-41
2022/07/30 03:46:10;;;;;;;14.95;7.70;;;17.20;74.40;;;13.14;100.00;95800.88;4969862;28;20053;-46
2022/07/30 03:48:39;;;;;;;16.48;8.32;;;17.20;74.40;;;13.14;100.00;95806.22;4953956;28;20451;-45
2022/07/30 03:51:10;;;;;;;12.82;8.57;;;17.20;75.30;;;13.12;100.00;95808.34;4969501;28;20053;-45
2022/07/30 03:53:39;;;;;;;14.23;7.75;;;17.20;74.60;;;13.14;100.00;95811.56;4969408;28;20072;-44
2022/07/30 03:56:09;;;;;;;15.00;8.07;;;17.20;74.60;;;13.11;100.00;95818.25;4969886;28;20512;-46
2022/07/30 03:58:37;;;;;;;14.57;8.25;;;17.20;74.70;;;13.09;100.00;95817.72;4964425;28;20030;-42
2022/07/30 04:01:04;;;;;;;16.90;8.23;;;17.20;74.70;;;13.08;100.00;95820.69;4966633;28;20050;-41
2022/07/30 04:03:32;;;;;;;15.45;8.85;;;17.10;74.60;;;13.03;100.00;95820.69;4966693;28;20033;-41
2022/07/30 04:06:04;;;;;;;16.98;8.55;;;17.10;74.60;;;13.04;100.00;95825.78;4966397;28;20035;-41
2022/07/30 04:08:30;;;;;;;18.92;8.57;;;17.10;74.80;;;13.07;100.00;95824.44;4958908;28;20531;-41
2022/07/30 04:11:03;;;;;;;16.63;8.65;;;17.10;74.70;;;13.03;100.00;95832.19;4969739;28;20040;-44
2022/07/30 04:13:29;;;;;;;14.93;8.23;;;17.10;74.70;;;13.02;100.00;95824.44;4970351;28;20034;-40
2022/07/30 04:16:50;;;;;;;15.95;8.60;;;17.10;74.60;;;13.00;100.00;95827.38;4969645;28;20026;-40
2022/07/30 04:19:37;;;;;;;18.27;8.63;;;17.10;74.70;;;13.00;100.00;95823.91;4970968;28;20038;-40
2022/07/30 04:22:11;;;;;;;15.50;8.52;;;17.10;74.80;;;13.00;100.00;95829.25;4970942;28;20053;-42
2022/07/30 04:24:40;;;;;;;16.17;8.68;;;17.10;74.70;;;13.01;100.00;95829.00;4972600;28;20018;-46
2022/07/30 04:27:06;;;;;;;18.27;8.90;;;17.10;74.80;;;13.02;100.00;95829.81;4973342;28;20014;-44
2022/07/30 04:29:35;;;;;;;18.42;8.60;;;17.10;74.80;;;13.03;100.00;95829.50;4974723;28;20500;-46
2022/07/30 04:32:10;;;;;;;15.30;8.73;;;17.20;74.90;;;13.04;100.00;95833.00;4989244;28;20026;-43
2022/07/30 04:34:44;;;;;;;21.95;8.88;;;17.20;74.90;;;13.02;100.00;95841.28;4988689;28;20026;-46
2022/07/30 04:37:18;;;;;;;15.10;8.77;;;17.20;74.80;;;13.03;100.00;95842.09;4974152;28;20473;-40
2022/07/30 04:39:48;;;;;;;14.07;7.88;;;17.20;74.80;;;13.04;100.00;95843.72;4974501;28;20034;-41
2022/07/30 04:42:15;;;;;;;15.95;9.10;;;17.20;74.70;;;13.03;100.00;95848.22;4988100;28;20037;-41
2022/07/30 04:44:45;;;;;;;19.95;11.27;;;17.20;74.60;;;13.06;100.00;95850.34;4988602;28;20117;-41
2022/07/30 04:47:12;;;;;;;17.38;9.90;;;17.20;74.70;;;13.11;100.00;95858.38;4973679;28;20132;-41
2022/07/30 04:49:40;;;;;;;17.13;9.57;;;17.20;74.80;;;13.16;100.00;95858.38;4973957;28;20040;-42
2022/07/30 04:52:27;;;;;;;15.35;9.35;;;17.20;74.80;;;13.18;100.00;95860.75;4988626;28;20033;-43
2022/07/30 04:55:06;;;;;;;18.40;9.73;;;17.30;75.00;;;13.23;100.00;95868.75;4956680;28;20022;-45
2022/07/30 04:57:36;;;;;;;20.65;9.57;;;17.40;74.90;;;13.39;100.00;95862.28;4988289;28;20062;-41
2022/07/30 05:00:06;;;;;;;18.20;10.07;;;17.40;74.80;;;13.63;100.00;95867.81;4989161;28;20381;-46
2022/07/30 05:02:40;;;;;;;17.13;10.23;;;17.50;74.80;;;13.91;100.00;95867.34;4988391;28;20057;-40
2022/07/30 05:05:15;;;;;;;17.95;9.25;;;17.70;75.10;;;14.17;100.00;95868.78;4988299;28;20019;-45
2022/07/30 05:07:45;;;;;;;15.60;9.43;;;17.90;75.00;;;14.42;100.00;95877.69;4973676;28;20550;-42
2022/07/30 05:10:13;;;;;;;17.23;9.25;;;18.10;75.00;;;14.68;100.00;95876.38;4988186;28;20032;-44
2022/07/30 05:12:45;;;;;;;15.55;9.40;;;18.30;74.80;;;14.89;100.00;95871.63;4988028;28;20030;-42
2022/07/30 05:15:23;;;;;;;13.37;8.70;;;18.50;74.70;;;15.12;100.00;95883.44;4972020;28;20030;-42
2022/07/30 05:17:50;;;;;;;12.18;9.00;;;18.90;74.60;;;15.32;100.00;95882.38;4971717;28;20435;-41
2022/07/30 05:20:19;;;;;;;10.65;7.13;;;19.00;74.50;;;15.57;100.00;95888.53;4972315;28;20053;-42
2022/07/30 05:22:48;;;;;;;11.63;7.35;;;19.30;74.30;;;15.86;100.00;95881.19;4987401;28;20026;-44
2022/07/30 05:25:16;;;;;;;10.02;6.97;;;19.60;74.20;;;16.18;100.00;95885.00;4972813;28;20014;-43
2022/07/30 05:27:51;;;;;;;7.78;6.47;;;19.90;74.10;;;16.47;100.00;95890.19;4972985;28;20030;-42
2022/07/30 05:30:26;;;;;;;8.15;5.60;;;20.20;74.10;;;16.71;100.00;95895.44;4973562;28;20085;-42
2022/07/30 05:32:52;;;;;;;8.60;4.90;;;20.50;74.10;;;17.01;100.00;95898.69;4972573;28;20030;-42
2022/07/30 05:35:18;;;;;;;6.45;4.60;;;20.80;73.80;;;17.23;97.29;95898.00;4971751;28;20033;-42
2022/07/30 05:37:47;;;;;;;5.97;4.85;;;21.10;73.50;;;17.47;97.25;95895.13;4971597;28;20517;-42
2022/07/30 05:40:13;;;;;;;4.32;3.80;;;21.40;73.20;;;17.72;94.46;95896.47;4971967;28;20084;-42
2022/07/30 05:42:39;;;;;;;4.32;3.83;;;21.80;72.70;;;17.96;93.22;95891.69;4987617;28;20054;-42
2022/07/30 05:45:06;;;;;;;3.90;3.60;;;22.00;72.00;;;18.23;92.78;95887.28;4972652;28;20022;-42
2022/07/30 05:47:35;;;;;;;4.10;3.42;;;22.30;71.50;;;18.40;90.97;95892.03;4988207;28;20058;-41
2022/07/30 05:50:01;;;;;;;4.28;3.40;;;22.50;70.90;;;18.41;90.17;95894.41;4966896;28;20025;-42
2022/07/30 05:52:27;;;;;;;5.35;3.40;;;22.60;70.20;;;18.32;88.33;95893.53;4968689;28;20125;-42
2022/07/30 05:54:53;;;;;;;4.97;3.70;;;22.70;69.90;;;18.29;85.75;95893.34;4967712;28;20448;-43
2022/07/30 05:57:19;;;;;;;3.80;3.50;;;22.80;69.70;;;18.29;85.25;95898.75;4970752;28;20026;-41
2022/07/30 05:59:49;;;;;;;4.78;3.40;;;22.90;69.40;;;18.30;85.62;95903.84;4964597;28;20034;-42
2022/07/30 06:02:15;;;;;;;5.90;3.58;;;23.00;69.20;;;18.31;84.59;95899.25;4973318;28;20507;-42
2022/07/30 06:04:41;;;;;;;4.32;3.40;;;23.10;69.20;;;18.33;84.15;95910.50;4969917;28;20534;-43
2022/07/30 06:07:07;;;;;;;3.60;3.00;;;23.10;68.80;;;18.34;84.59;95909.41;4970447;28;20076;-44
2022/07/30 06:09:32;;;;;;;5.95;3.30;;;23.20;68.60;;;18.40;84.58;95905.50;4942020;28;31295;-44
2022/07/30 06:11:58;;;;;;;4.03;3.53;;;23.30;68.60;;;18.46;84.99;95915.06;4979301;28;20084;-42
2022/07/30 06:14:31;;;;;;;5.13;3.85;;;23.30;68.60;;;18.49;84.59;95914.47;4971818;28;20030;-43
2022/07/30 06:16:59;;;;;;;5.25;3.72;;;23.40;68.50;;;18.64;83.13;95910.56;4972547;28;20507;-43
2022/07/30 06:19:25;;;;;;;4.07;3.67;;;23.60;68.30;;;18.82;83.24;95917.69;4971105;28;20065;-44
2022/07/30 06:21:56;;;;;;;4.32;3.50;;;23.70;68.00;;;19.01;82.87;95916.69;4969182;28;20041;-41
2022/07/30 06:24:22;;;;;;;4.53;3.50;;;23.80;67.90;;;19.15;81.78;95910.09;4968570;28;20049;-45
2022/07/30 06:26:48;;;;;;;4.20;3.47;;;24.00;67.70;;;19.49;79.19;95921.31;4969996;28;20037;-42
2022/07/30 06:29:17;;;;;;;3.85;3.35;;;24.20;67.30;;;19.84;78.60;95922.25;4983884;28;20385;-43
2022/07/30 06:31:42;;;;;;;4.53;3.47;;;24.50;66.80;;;20.10;77.76;95917.66;4936539;28;24757;-45
2022/07/30 06:34:08;;;;;;;4.60;3.80;;;24.70;66.40;;;20.53;75.34;95925.03;4969215;28;20026;-45
2022/07/30 06:36:35;;;;;;;4.80;3.40;;;25.10;66.00;;;20.94;72.65;95929.09;4968882;28;20508;-50
2022/07/30 06:39:03;;;;;;;4.75;3.15;;;25.60;65.00;;;21.32;71.92;95936.47;4970840;28;20037;-43
2022/07/30 06:41:29;;;;;;;3.75;2.95;;;26.10;63.80;;;21.54;71.26;95929.25;4970367;28;20068;-45
2022/07/30 06:43:55;;;;;;;3.53;3.10;;;26.40;63.10;;;21.44;70.28;95923.06;4965906;28;20033;-44
2022/07/30 06:46:20;;;;;;;3.63;3.33;;;26.60;62.10;;;21.40;70.45;95922.13;4970048;28;20424;-43
2022/07/30 06:48:46;;;;;;;4.68;3.13;;;26.60;61.00;;;21.37;70.54;95919.25;4983824;28;20022;-45
2022/07/30 06:51:21;;;;;;;3.20;2.90;;;26.60;60.40;;;21.22;70.57;95924.09;4970912;28;20105;-46
2022/07/30 06:53:50;;;;;;;4.97;3.40;;;26.60;59.70;;;21.11;70.48;95924.75;4967716;28;20054;-42
2022/07/30 06:56:16;;;;;;;5.78;3.63;;;26.60;59.50;;;21.04;71.85;95927.97;4967602;28;20485;-42
2022/07/30 06:58:42;;;;;;;4.18;3.53;;;26.50;59.10;;;20.85;69.98;95925.63;4974220;28;20053;-48
2022/07/30 07:01:08;;;;;;;6.45;3.60;;;26.40;58.70;;;20.69;70.46;95938.06;4986068;28;20127;-44
2022/07/30 07:03:34;;;;;;;4.15;3.08;;;26.30;58.40;;;20.63;71.55;95932.03;4986114;28;20515;-48
2022/07/30 07:06:04;;;;;;;4.40;3.20;;;26.10;58.20;;;20.64;71.91;95933.59;4944651;28;22725;-43
2022/07/30 07:08:36;;;;;;;7.07;3.40;;;26.10;58.20;;;20.66;71.41;95939.50;4978773;28;20514;-42
2022/07/30 07:11:02;;;;;;;5.78;3.85;;;26.10;58.00;;;20.65;70.17;95934.38;4954465;28;20049;-42
2022/07/30 07:13:34;;;;;;;8.48;3.92;;;26.10;57.90;;;20.65;71.95;95943.34;4971000;28;20040;-43
2022/07/30 07:16:00;;;;;;;4.00;3.60;;;26.10;57.50;;;20.83;73.45;95946.00;4970732;28;20022;-43
2022/07/30 07:18:33;;;;;;;7.10;4.20;;;26.10;57.80;;;20.77;71.72;95946.16;4970407;28;20040;-43
2022/07/30 07:21:01;;;;;;;4.32;3.83;;;26.20;57.60;;;20.82;71.41;95937.09;4971597;28;20130;-41
2022/07/30 07:23:30;;;;;;;4.60;3.60;;;26.10;57.30;;;20.97;70.87;95943.91;4970795;28;20093;-43
2022/07/30 07:25:59;;;;;;;4.18;3.78;;;26.20;57.30;;;21.28;68.02;95943.66;4971486;28;20480;-43
2022/07/30 07:28:34;;;;;;;4.63;3.63;;;26.60;57.00;;;21.58;68.70;95939.09;4971555;28;20080;-45
2022/07/30 07:30:59;;;;;;;4.20;3.60;;;27.00;56.60;;;21.79;66.72;95941.06;4986690;28;20026;-42
2022/07/30 07:33:35;;;;;;;4.80;3.53;;;27.20;56.40;;;22.26;66.20;95946.38;4971121;28;20037;-42
2022/07/30 07:36:03;;;;;;;4.50;3.53;;;27.60;55.60;;;22.73;66.90;95944.25;4970421;28;20477;-43
2022/07/30 07:38:29;;;;;;;4.32;3.92;;;27.90;55.50;;;23.09;62.46;95940.06;4970076;28;20030;-44
2022/07/30 07:40:55;;;;;;;3.78;3.47;;;28.30;54.80;;;23.22;63.26;95944.41;4971194;28;20072;-42
2022/07/30 07:43:23;;;;;;;3.75;3.45;;;28.60;54.30;;;23.50;61.13;95941.03;4970984;28;20034;-43
2022/07/30 07:45:52;;;;;;;4.68;4.00;;;28.90;53.40;;;23.77;62.16;95936.88;4971217;28;20034;-42
2022/07/30 07:48:18;;;;;;;4.97;3.85;;;29.20;53.20;;;23.67;60.16;95940.03;4986097;28;20068;-42
2022/07/30 07:50:53;;;;;;;6.30;3.70;;;29.50;52.40;;;24.00;61.24;95940.75;4971032;28;20025;-42
2022/07/30 07:53:19;;;;;;;6.15;4.13;;;29.70;51.90;;;24.14;59.09;95942.31;4969951;28;20045;-46
2022/07/30 07:55:45;;;;;;;4.20;3.80;;;29.90;51.80;;;24.30;59.24;95945.88;4954089;28;20410;-43
2022/07/30 07:58:12;;;;;;;5.07;3.95;;;30.20;51.20;;;24.61;59.18;95945.25;4970812;28;20069;-43
2022/07/30 08:00:40;;;;;;;4.60;4.20;;;30.50;50.80;;;24.63;57.48;95942.19;4974214;28;20161;-47
2022/07/30 08:03:06;;;;;;;5.15;4.30;;;30.70;49.80;;;25.01;56.78;95943.59;4971785;28;20112;-43
2022/07/30 08:05:31;;;;;;;4.05;3.70;;;31.00;49.40;;;24.89;55.78;95945.25;4973054;28;20109;-43
2022/07/30 08:07:58;;;;;;;4.95;3.75;;;31.10;48.60;;;25.04;58.45;95932.00;4972901;28;20631;-49
2022/07/30 08:10:27;;;;;;;5.15;3.88;;;31.30;48.10;;;25.22;54.15;95936.03;4989068;28;20030;-44
2022/07/30 08:12:55;;;;;;;4.20;3.80;;;31.40;47.40;;;25.43;54.56;95941.22;4972625;28;20030;-49
2022/07/30 08:15:22;;;;;;;4.45;4.05;;;31.60;46.90;;;25.47;53.91;95942.09;4972937;28;20083;-43
2022/07/30 08:17:48;;;;;;;4.40;4.00;;;31.70;46.40;;;25.76;53.16;95945.53;4973457;28;20038;-43
2022/07/30 08:20:17;;;;;;;5.72;4.00;;;31.80;46.00;;;25.86;51.65;95947.75;4972499;28;20026;-45
2022/07/30 08:22:50;;;;;;;7.05;4.45;;;32.00;45.40;;;26.07;52.26;95950.16;4972702;28;20419;-43
2022/07/30 08:25:19;;;;;;;4.93;3.90;;;32.20;45.30;;;26.17;51.85;95946.13;4972996;28;20105;-44
2022/07/30 08:27:45;;;;;;;5.32;4.25;;;32.40;44.80;;;26.01;53.79;95944.22;4970108;28;20113;-43
2022/07/30 08:30:12;;;;;;;5.18;4.38;;;32.60;44.70;;;25.98;51.44;95949.56;4972034;28;20049;-42
2022/07/30 08:32:37;;;;;;;4.93;4.43;;;32.70;43.90;;;26.03;52.85;95944.63;4988413;28;20033;-47
2022/07/30 08:35:05;;;;;;;4.85;4.40;;;32.80;43.80;;;26.49;51.36;95952.31;4988178;28;20029;-46
2022/07/30 08:37:33;;;;;;;5.60;3.97;;;33.00;43.40;;;26.94;51.23;95950.84;4971973;28;20475;-44
2022/07/30 08:40:03;;;;;;;5.03;4.30;;;33.20;43.40;;;27.00;51.38;95947.44;4972607;28;20030;-45
2022/07/30 08:42:34;;;;;;;5.05;4.55;;;33.40;43.30;;;26.62;49.26;95947.47;4972248;28;20523;-45
2022/07/30 08:45:01;;;;;;;5.47;4.07;;;33.60;42.50;;;26.71;48.27;95942.59;4972008;28;20503;-45
2022/07/30 08:47:43;;;;;;;5.85;3.80;;;33.70;41.80;;;26.97;48.27;95939.97;4955419;28;20064;-53
2022/07/30 08:50:10;;;;;;;4.45;3.75;;;33.80;41.20;;;27.36;47.48;95945.41;4972337;28;20113;-44
2022/07/30 08:52:37;;;;;;;4.55;4.15;;;33.90;40.90;;;27.48;49.45;95947.16;4971939;28;20034;-47
2022/07/30 08:55:05;;;;;;;4.93;4.07;;;34.10;40.80;;;27.84;47.09;95940.38;4972867;28;20493;-45
2022/07/30 08:57:36;;;;;;;4.13;3.72;;;34.30;40.70;;;28.00;44.85;95942.94;4969425;28;20033;-43
2022/07/30 09:00:07;;;;;;;7.43;4.05;;;34.50;39.80;;;28.53;45.02;95939.41;4968922;28;20031;-45
2022/07/30 09:02:39;;;;;;;4.75;3.67;;;34.70;39.50;;;28.69;45.42;95940.00;4971867;28;20042;-45
2022/07/30 09:05:07;;;;;;;5.25;4.03;;;34.90;39.40;;;28.73;44.29;95945.50;4971828;28;20038;-45
2022/07/30 09:07:35;;;;;;;7.22;3.90;;;35.20;39.10;;;28.76;43.14;95931.06;4971545;28;20096;-44
2022/07/30 09:10:07;;;;;;;5.38;4.10;;;35.30;38.20;;;28.78;43.49;95935.00;4985863;28;20054;-45
2022/07/30 09:12:38;;;;;;;4.47;4.07;;;35.50;37.80;;;28.86;41.57;95930.38;4973079;28;20504;-44
2022/07/30 09:15:22;;;;;;;4.60;3.97;;;35.60;37.40;;;28.72;40.42;95930.22;4987838;28;20117;-47
2022/07/30 09:18:02;;;;;;;5.88;3.85;;;35.70;36.30;;;28.70;39.82;95932.53;4973715;28;20084;-46
2022/07/30 09:20:35;;;;;;;5.80;3.63;;;35.80;36.00;;;29.08;41.25;95930.66;4971179;28;20026;-44
2022/07/30 09:23:05;;;;;;;4.57;4.07;;;36.00;36.00;;;28.85;38.65;95937.03;4964111;28;20060;-47
2022/07/30 09:25:40;;;;;;;5.88;3.67;;;36.10;34.60;;;29.49;41.11;95936.94;4988629;28;20117;-44
2022/07/30 09:28:09;;;;;;;5.45;3.55;;;36.20;34.60;;;29.79;37.81;95933.28;4973829;28;20455;-44
2022/07/30 09:30:54;;;;;;;4.70;4.00;;;36.40;34.60;;;28.96;38.77;95928.94;4973229;28;20030;-49
2022/07/30 09:33:43;;;;;;;8.57;3.97;;;36.50;34.50;;;29.05;40.42;95937.66;4972146;28;20032;-44
2022/07/30 09:36:15;;;;;;;8.13;3.90;;;36.50;34.00;;;29.52;39.45;95922.44;4973524;28;20487;-46
2022/07/30 09:38:54;;;;;;;;;;;36.60;33.40;;;29.88;38.27;95923.56;4969480;28;20445;-44
2022/07/30 09:41:36;;;;;;;4.88;3.90;;;36.80;34.50;;;30.12;39.65;95933.13;4968467;28;20351;-45
2022/07/30 09:44:05;;;;;;;6.22;4.05;;;37.10;33.30;;;30.16;40.12;95927.66;4973683;28;20113;-49
2022/07/30 09:46:49;;;;;;;4.22;3.90;;;37.40;32.70;;;30.60;37.51;95929.50;4988240;28;20555;-45
2022/07/30 09:49:27;;;;;;;6.50;3.90;;;37.60;32.20;;;31.16;34.89;95925.38;4973413;28;20022;-47
2022/07/30 09:51:55;;;;;;;6.25;4.00;;;38.10;32.00;;;30.74;35.44;95924.03;4971682;28;20116;-45
2022/07/30 09:54:58;;;;;;;5.75;4.25;;;38.50;31.20;;;30.42;36.60;95921.16;4971781;28;20026;-46
2022/07/30 09:57:28;;;;;;;6.75;4.10;;;38.60;30.70;;;30.26;36.81;95917.94;4971848;28;20037;-44
2022/07/30 10:00:21;;;;;;;6.40;3.70;;;38.40;30.20;;;30.48;33.18;95921.56;4971561;28;20504;-45
2022/07/30 10:02:51;;;;;;;6.43;3.33;;;38.30;29.80;;;30.66;35.58;95911.44;4986121;28;20057;-44
2022/07/30 10:05:19;;;;;;;5.75;3.28;;;38.40;29.40;;;30.38;36.82;95915.66;4987882;28;20049;-44
2022/07/30 10:08:01;;;;;;;3.60;3.30;;;38.60;29.40;;;30.89;34.23;95914.69;4971506;28;20459;-49
2022/07/30 10:10:34;;;;;;;;;;;38.80;29.20;;;31.53;33.19;95911.28;4988120;28;20030;-46
2022/07/30 10:13:08;;;;;;;5.35;3.45;;;39.00;30.00;;;32.01;30.38;95904.59;4971299;28;20288;-44
2022/07/30 10:15:38;;;;;;;3.75;3.45;;;39.40;28.90;;;31.65;34.37;95910.09;4971707;28;20113;-44
2022/07/30 10:18:07;;;;;;;3.92;3.42;;;39.50;28.50;;;31.38;30.81;95903.44;4972748;28;20070;-47
2022/07/30 10:20:36;;;;;;;7.35;3.60;;;39.60;27.30;;;31.56;30.20;95898.72;4970848;28;20018;-45
2022/07/30 10:23:07;;;;;;;3.95;3.42;;;39.60;27.10;;;31.69;31.94;95904.63;4970891;28;20048;-52
2022/07/30 10:25:38;;;;;;;4.03;3.47;;;39.70;27.10;;;31.72;30.65;95907.38;4987696;28;20084;-44
2022/07/30 10:28:05;;;;;;;6.10;3.30;;;39.80;27.20;;;31.66;32.03;95897.13;4987803;28;20084;-50
2022/07/30 10:30:35;;;;;;;4.53;3.70;;;39.60;27.10;;;31.48;33.67;95892.41;5003595;28;20115;-46
2022/07/30 10:33:03;;;;;;;5.15;3.55;;;39.80;27.00;;;31.34;30.77;95893.19;4971992;28;20046;-50
2022/07/30 10:35:29;;;;;;;3.65;3.45;;;39.60;26.70;;;31.54;30.43;95884.56;4971183;28;20029;-45
2022/07/30 10:37:59;;;;;;;4.15;3.75;;;39.80;26.40;;;31.05;30.82;95886.81;4970707;28;20061;-44